AirNav  
 
 475 users online  

47OH Oldsells Heliport
Dublin, Ohio, USA

GOING TO DUBLIN?


FAA INFORMATION EFFECTIVE 25 FEBRUARY 2021

Location

FAA Identifier: 47OH
Lat/Long: 40-04-03.6654N 083-07-04.8036W
40-04.061090N 083-07.080060W
40.0676848,-83.1180010
(estimated)
Elevation: 845 ft. / 258 m (estimated)
From city: 2 miles S of DUBLIN, OH
Time zone: UTC -5 (UTC -4 during Daylight Saving Time)
Zip code: 43017

Heliport Operations

Heliport use: Private use. Permission required prior to landing
Activation date: 02/2020
Control tower: no
ARTCC: INDIANAPOLIS CENTER
FSS: DAYTON FLIGHT SERVICE STATION
Attendance: 
Segmented circle: no

Heliport Communications

WX ASOS at OSU (2.2 nm E): 121.35 (614-451-2465)
WX AWOS-3 at TZR (10 nm S): 135.925 (614-878-1722)
WX ASOS at CMH (11 nm E): 124.6 (614-338-4083)
WX AWOS-3 at DLZ (13 nm N): 119.025 (740-203-1878)
WX AWOS-3 at MRT (14 nm NW): 119.275 (937-644-2967)
WX AWOS-3 at LCK (18 nm SE): PHONE 614-492-2441
WX AWOS-3PT at UYF (18 nm SW): 120.85 (740-852-2844)

Nearby radio navigation aids

VOR radial/distance  VOR name  Freq  Var
APEr264/24.8APPLETON VORTAC116.7006W
BUDr189/(33.0)BUCKEYE VOR109.8005W
XUBr354/(33.1)YELLOW BUD VOR112.5005W

 
NDB name  Hdg/Dist  Freq  Var  ID
FULER101/3.751505WOS --- ...
COURT HOUSE030/30.741406WCSS -.-. ... ...
CLARK COUNTY073/32.634104WCCJ -.-. -.-. .---

Heliport Services

Runway Information

Helipad H1

Dimensions: 35 x 35 ft. / 11 x 11 m
Surface: turf
Latitude: 40-04.061090N
Longitude: 083-07.080060W
Elevation: 845.0 ft.
Traffic pattern: leftleft

Heliport Ownership and Management from official FAA records

Ownership: Privately-owned
Owner: WALLACE C. RICHARDSON
4730 HAYDEN RUN RD
COLUMBUS, OH 43221
Phone 614-889-5624
Manager: WALLACE C. RICHARDSON
4730 HAYDEN RUN RD
COLUMBUS, OH 43221
Phone 614-889-5624
WMRICHARDSON@COPPER.NET

Heliport Operational Statistics

Aircraft based on the field: 1
Helicopters: 1
    

Instrument Procedures

There are no published instrument procedures at 47OH.

Some nearby airports with instrument procedures:

KOSU - Ohio State University Airport (2 nm E)
KTZR - Bolton Field Airport (10 nm S)
KCMH - John Glenn Columbus International Airport (11 nm E)
KDLZ - Delaware Municipal Airport - Jim Moore Field (13 nm N)
KMRT - Union County Airport (14 nm NW)
KLCK - Rickenbacker International Airport (18 nm SE)
KUYF - Madison County Airport (18 nm SW)
 
Loc | Ops | Rwys | IFR | FBO | Links
Com | Nav | Svcs | Stats | Notes
Aerial photo
No photo
 
Airport distance calculator
Flying to Oldsells Heliport? Find the distance to fly.

From to 47OH

Sunrise and sunset
Times for 09-Mar-2021
 Local
(UTC-5)
 Zulu
(UTC)
Morning civil twilight06:2811:28
Sunrise06:5511:55
Sunset18:3223:32
Evening civil twilight18:5923:59

Current date and time
Zulu (UTC)  09-Mar-2021 06:23:12
Local (UTC-5)  09-Mar-2021 01:23:12
 
METAR
KOSU 
2nm NE 
090553Z AUTO 22006KT 10SM OVC070 09/M01 A3037 RMK AO2 SLP285 T00941011 10139 20094 53002
KTZR 
11nm S 
090555Z AUTO 23009KT 10SM SCT070 05/M01 A3038 RMK AO2 T00541010 10116 20050 401711069
KCMH 
12nm E 
090551Z 00000KT 10SM FEW080 BKN250 08/M02 A3038 RMK AO2 SLP287 T00831017 10133 20078 51003
KDLZ 
13nm N 
090555Z AUTO 22004KT 10SM OVC070 07/00 A3037 RMK AO2
KMRT 
14nm NW 
090555Z AUTO 22005KT 10SM CLR 04/00 A3037 RMK AO2 T00381005 10105 20038 401701070
KLCK 
18nm SE 
090555Z AUTO 21006KT 10SM CLR 07/M02 A3038 RMK AO2 T00661020 10120 20058 401681065
KUYF 
18nm SW 
090555Z AUTO 20003KT 10SM CLR 02/M01 A3038 RMK AO2
TAF
KCMH 
12nm E 
090532Z 0906/1006 17003KT P6SM SCT080 BKN250 FM091400 21004KT P6SM SCT080 BKN250 FM091800 23009KT P6SM BKN250 FM092300 20006KT P6SM SCT250 FM100200 17005KT P6SM FEW250
KLCK 
18nm SE 
090532Z 0906/1006 20006KT P6SM SCT080 BKN250 FM091400 21004KT P6SM SCT080 BKN250 FM091800 23008KT P6SM BKN250 FM092300 20006KT P6SM SCT250 FM100200 17004KT P6SM FEW250
NOTAMs
Click for the latest NOTAMs
NOTAMs are issued by the DoD/FAA and will open in a separate window not controlled by AirNav.

 

 
 

Would you like to see your business listed on this page?

 If your business provides an interesting product or service to pilots, flight crews, aircraft, or users of the Oldsells Heliport, you should consider listing it here.  To start the listing process, click on the button below
 
Add a business
 

Other Pages about Oldsells Heliport

Update a link
 
Copyright © AirNav, LLC. All rights reserved. Privacy Policy  Contact